MMX weather

Malmö Sturup Airport
Malmö, Skåne län, Sweden

Public forecast

Using degrees Celsius for public forecast. Weather courtesy of forecast.io.

Current aviation weather report (METAR) for Malmö Sturup Airport

Retrieved 2019/10/16 18:20 UTC (0 seconds ago):

ESMS 161820Z 29007KT 8000 -DZ OVC003 12/12 Q1005 REDZ

Aviation forecast (TAF) for Malmö Sturup Airport

Retrieved 2019/10/16 18:33 UTC (0 seconds ago):

TAF ESMS 161701Z 1618/1718 29005KT 2000 BR BKN003 TEMPO 1618/1623 6000 RADZ BKN006 BECMG 1623/1701 SCT015 PROB40 1701/1705 0200 BCFG VV001 BECMG 1705/1707 BKN006 TEMPO 1707/1716 1200 BR BKN003 BECMG 1716/1718 BKN020